createdAt,value
2022-11-12T00:04:23.747Z,7.64
2022-11-12T00:09:44.791Z,7.40
2022-11-12T00:15:06.771Z,7.46
2022-11-12T00:20:28.025Z,7.51
2022-11-12T00:25:59.148Z,7.48
2022-11-12T00:31:20.540Z,7.54
2022-11-12T00:36:41.555Z,7.62
2022-11-12T00:42:02.857Z,7.68
2022-11-12T00:47:24.854Z,7.75
2022-11-12T00:52:46.187Z,7.81
2022-11-12T00:58:07.401Z,7.85
2022-11-12T01:03:28.734Z,7.83
2022-11-12T01:08:51.148Z,7.77
2022-11-12T01:14:12.249Z,7.66
2022-11-12T01:19:33.636Z,7.49
2022-11-12T01:24:54.751Z,7.59
2022-11-12T01:30:16.527Z,7.76
2022-11-12T01:35:37.631Z,7.85
2022-11-12T01:40:58.701Z,7.66
2022-11-12T01:46:24.728Z,7.83
2022-11-12T01:51:50.286Z,7.85
2022-11-12T01:57:13.163Z,7.84
2022-11-12T02:02:36.301Z,7.99
2022-11-12T02:08:00.311Z,8.01
2022-11-12T02:13:40.458Z,8.09
2022-11-12T02:19:03.482Z,8.01
2022-11-12T02:24:24.347Z,7.95
2022-11-12T02:29:48.695Z,7.93
2022-11-12T02:35:09.883Z,7.96
2022-11-12T02:40:31.030Z,7.94
2022-11-12T02:45:52.163Z,7.91
2022-11-12T02:51:13.430Z,7.99
2022-11-12T02:56:35.583Z,7.88
2022-11-12T03:01:56.667Z,7.97
2022-11-12T03:07:17.978Z,8.07
2022-11-12T03:12:38.866Z,8.15
2022-11-12T03:18:00.424Z,8.25
2022-11-12T03:23:21.564Z,8.18
2022-11-12T03:28:42.669Z,8.15
2022-11-12T03:34:03.908Z,8.19
2022-11-12T03:39:25.233Z,8.11
2022-11-12T03:44:46.890Z,8.15
2022-11-12T03:50:10.349Z,8.28
2022-11-12T03:55:31.801Z,8.29
2022-11-12T04:00:53.562Z,8.37
2022-11-12T04:06:33.049Z,8.40
2022-11-12T04:11:54.289Z,8.32
2022-11-12T04:17:50.959Z,8.40
2022-11-12T04:23:12.197Z,8.37
2022-11-12T04:28:33.564Z,8.30
2022-11-12T04:33:54.814Z,8.36
2022-11-12T04:39:16.049Z,8.24
2022-11-12T04:44:56.092Z,8.46
2022-11-12T04:50:19.080Z,8.45
2022-11-12T04:55:40.375Z,8.45
2022-11-12T05:01:04.084Z,8.46
2022-11-12T05:06:44.009Z,8.44
2022-11-12T05:12:05.433Z,8.18
2022-11-12T05:17:26.523Z,8.45
2022-11-12T05:23:04.477Z,8.48
2022-11-12T05:28:27.340Z,8.55
2022-11-12T05:33:48.327Z,8.39
2022-11-12T05:39:09.727Z,8.44
2022-11-12T05:44:30.860Z,8.39
2022-11-12T05:49:51.839Z,8.67
2022-11-12T05:55:13.308Z,8.71
2022-11-12T06:00:39.006Z,8.66
2022-11-12T06:06:00.073Z,8.93
2022-11-12T06:11:21.327Z,8.97
2022-11-12T06:16:42.352Z,8.93
2022-11-12T06:22:03.518Z,8.91
2022-11-12T06:27:24.455Z,9.08
2022-11-12T06:32:49.805Z,9.13
2022-11-12T06:38:11.018Z,9.20
2022-11-12T06:43:33.826Z,9.38
2022-11-12T06:48:55.140Z,9.50
2022-11-12T06:54:16.144Z,9.42
2022-11-12T06:59:37.348Z,9.37
2022-11-12T07:04:58.699Z,9.53
2022-11-12T07:10:20.392Z,9.55
2022-11-12T07:15:48.446Z,9.41
2022-11-12T07:21:16.177Z,9.45
2022-11-12T07:26:37.516Z,9.67
2022-11-12T07:31:58.426Z,9.80
2022-11-12T07:37:19.859Z,9.73
2022-11-12T07:42:41.259Z,9.71
2022-11-12T07:48:02.369Z,9.70
2022-11-12T07:53:23.400Z,9.68
2022-11-12T07:58:44.991Z,9.76
2022-11-12T08:04:09.609Z,9.68
2022-11-12T08:09:30.764Z,9.65
2022-11-12T08:14:52.887Z,9.75
2022-11-12T08:20:14.556Z,9.59
2022-11-12T08:25:36.490Z,9.53
2022-11-12T08:30:58.595Z,9.53
2022-11-12T08:36:19.826Z,9.49
2022-11-12T08:41:40.808Z,9.64
2022-11-12T08:47:02.318Z,9.69
2022-11-12T08:52:23.578Z,9.59
2022-11-12T08:57:45.322Z,9.58
2022-11-12T09:03:08.648Z,9.52
2022-11-12T09:08:30.036Z,9.57
2022-11-12T09:13:53.565Z,9.69
2022-11-12T09:19:14.631Z,9.71
2022-11-12T09:24:36.087Z,9.74
2022-11-12T09:29:57.286Z,9.66
2022-11-12T09:35:18.500Z,9.48
2022-11-12T09:40:51.715Z,9.67
2022-11-12T09:46:28.564Z,9.71
2022-11-12T09:52:03.303Z,9.97
2022-11-12T09:57:24.291Z,9.88
2022-11-12T10:02:55.550Z,10.02
2022-11-12T10:08:42.635Z,9.94
2022-11-12T10:14:25.259Z,9.99
2022-11-12T10:20:04.906Z,9.86
2022-11-12T10:25:26.464Z,9.81
2022-11-12T10:30:48.183Z,9.86
2022-11-12T10:36:33.576Z,10.04
2022-11-12T10:42:16.428Z,9.96
2022-11-12T10:47:43.079Z,9.88
2022-11-12T10:53:08.023Z,10.02
2022-11-12T10:58:29.538Z,9.77
2022-11-12T11:03:58.360Z,9.52
2022-11-12T11:09:56.735Z,9.49
2022-11-12T11:15:24.044Z,9.44
2022-11-12T11:20:58.350Z,9.46
2022-11-12T11:26:28.311Z,9.64
2022-11-12T11:32:08.249Z,9.82
2022-11-12T11:37:31.351Z,9.87
2022-11-12T11:42:52.924Z,9.83
2022-11-12T11:48:20.916Z,9.65
2022-11-12T11:53:57.769Z,9.51
2022-11-12T11:59:50.965Z,9.56
2022-11-12T12:05:33.987Z,9.44
2022-11-12T12:11:18.626Z,9.39
2022-11-12T12:17:17.597Z,9.38
2022-11-12T12:22:46.776Z,9.46
2022-11-12T12:28:10.951Z,9.60
2022-11-12T12:33:45.782Z,9.70
2022-11-12T12:39:18.979Z,9.80
2022-11-12T12:45:03.400Z,9.86
2022-11-12T12:50:26.376Z,9.84
2022-11-12T12:55:50.653Z,9.91
2022-11-12T13:01:29.423Z,9.99
2022-11-12T13:06:50.267Z,10.03
2022-11-12T13:12:11.827Z,9.94
2022-11-12T13:17:45.078Z,10.15
2022-11-12T13:23:11.228Z,10.20
2022-11-12T13:28:32.124Z,10.19
2022-11-12T13:33:53.803Z,10.12
2022-11-12T13:39:19.025Z,10.26
2022-11-12T13:44:40.148Z,10.21
2022-11-12T13:50:02.049Z,10.31
2022-11-12T13:55:23.520Z,10.33
2022-11-12T14:01:01.790Z,10.37
2022-11-12T14:06:35.807Z,10.39
2022-11-12T14:12:02.986Z,10.39
2022-11-12T14:17:23.949Z,10.33
2022-11-12T14:22:46.187Z,10.37
2022-11-12T14:28:28.876Z,10.30
2022-11-12T14:33:50.759Z,10.41
2022-11-12T14:39:12.587Z,10.43
2022-11-12T14:44:38.431Z,10.37
2022-11-12T14:49:59.452Z,10.46
2022-11-12T14:55:30.807Z,10.46
2022-11-12T15:00:54.519Z,10.46
2022-11-12T15:06:21.205Z,10.39
2022-11-12T15:11:42.447Z,10.59
2022-11-12T15:17:05.743Z,10.57
2022-11-12T15:22:27.917Z,10.60
2022-11-12T15:27:50.177Z,10.73
2022-11-12T15:33:11.310Z,10.76
2022-11-12T15:38:37.906Z,10.83
2022-11-12T15:44:00.404Z,10.91
2022-11-12T15:49:21.717Z,10.96
2022-11-12T15:54:43.175Z,11.00
2022-11-12T16:00:13.824Z,10.99
2022-11-12T16:05:35.096Z,11.13
2022-11-12T16:10:56.424Z,11.10
2022-11-12T16:16:18.076Z,11.24
2022-11-12T16:21:39.843Z,11.23
2022-11-12T16:27:02.503Z,11.28
2022-11-12T16:32:23.820Z,11.26
2022-11-12T16:37:46.536Z,11.27
2022-11-12T16:43:07.940Z,11.25
2022-11-12T16:48:29.004Z,11.25
2022-11-12T16:53:50.162Z,11.23
2022-11-12T16:59:14.579Z,11.01
2022-11-12T17:04:35.401Z,10.99
2022-11-12T17:09:56.956Z,10.87
2022-11-12T17:15:18.172Z,10.88
2022-11-12T17:20:39.812Z,10.86
2022-11-12T17:26:03.089Z,10.88
2022-11-12T17:31:24.926Z,10.94
2022-11-12T17:36:46.068Z,10.84
2022-11-12T17:42:07.192Z,10.81
2022-11-12T17:47:28.399Z,10.75
2022-11-12T17:52:49.717Z,10.74
2022-11-12T17:58:11.363Z,10.80
2022-11-12T18:03:32.769Z,10.83
2022-11-12T18:08:56.800Z,10.82
2022-11-12T18:14:23.577Z,10.79
2022-11-12T18:19:45.147Z,10.74
2022-11-12T18:25:07.094Z,10.70
2022-11-12T18:30:28.192Z,10.64
2022-11-12T18:35:59.679Z,10.55
2022-11-12T18:41:25.994Z,10.44
2022-11-12T18:46:49.732Z,10.39
2022-11-12T18:52:11.070Z,10.17
2022-11-12T18:57:32.311Z,10.28
2022-11-12T19:02:53.391Z,10.20
2022-11-12T19:08:14.758Z,10.11
2022-11-12T19:13:36.846Z,10.06
2022-11-12T19:19:00.668Z,10.21
2022-11-12T19:24:22.094Z,10.35
2022-11-12T19:29:43.700Z,10.45
2022-11-12T19:35:06.670Z,10.52
2022-11-12T19:40:28.069Z,10.51
2022-11-12T19:45:49.356Z,10.39
2022-11-12T19:51:14.201Z,10.49
2022-11-12T19:56:38.405Z,10.52
2022-11-12T20:02:03.172Z,10.51
2022-11-12T20:07:25.263Z,10.45
2022-11-12T20:12:47.557Z,10.57
2022-11-12T20:18:10.076Z,10.54
2022-11-12T20:23:36.633Z,10.44
2022-11-12T20:28:57.628Z,10.47
2022-11-12T20:34:19.186Z,10.38
2022-11-12T20:39:40.240Z,10.29
2022-11-12T20:45:01.652Z,10.25
2022-11-12T20:50:22.967Z,10.04
2022-11-12T20:55:44.113Z,10.01
2022-11-12T21:01:07.637Z,9.93
2022-11-12T21:06:29.582Z,9.74
2022-11-12T21:11:51.056Z,9.73
2022-11-12T21:17:11.942Z,9.81
2022-11-12T21:22:33.960Z,9.70
2022-11-12T21:27:55.003Z,9.59
2022-11-12T21:33:16.288Z,9.67
2022-11-12T21:38:37.678Z,9.75
2022-11-12T21:43:59.022Z,9.82
2022-11-12T21:49:20.086Z,9.77
2022-11-12T21:54:41.891Z,9.52
2022-11-12T22:00:34.595Z,9.49
2022-11-12T22:05:44.668Z,9.50
2022-11-12T22:11:08.399Z,9.47
2022-11-12T22:16:29.945Z,9.56
2022-11-12T22:21:51.111Z,9.62
2022-11-12T22:27:12.048Z,9.39
2022-11-12T22:32:33.340Z,9.47
2022-11-12T22:37:55.410Z,9.49
2022-11-12T22:43:16.524Z,9.35
2022-11-12T22:48:38.186Z,9.27
2022-11-12T22:54:02.337Z,9.24
2022-11-12T22:59:23.682Z,9.14
2022-11-12T23:04:44.936Z,9.18
2022-11-12T23:10:06.831Z,9.15
2022-11-12T23:15:31.239Z,9.19
2022-11-12T23:20:52.260Z,9.13
2022-11-12T23:26:24.580Z,9.12
2022-11-12T23:31:45.471Z,9.18
2022-11-12T23:37:06.843Z,9.18
2022-11-12T23:42:29.416Z,9.07
2022-11-12T23:47:50.896Z,9.20
2022-11-12T23:53:11.870Z,9.11
2022-11-12T23:58:33.348Z,9.08
